Time;durP1;ratioP1;P1;durP2;ratioP2;P2;SDS_P1;SDS_P2;PMS_P1;PMS_P2;Temp;Humidity;BMP_temperature;BMP_pressure;BME280_temperature;BME280_humidity;BME280_pressure;Samples;Min_cycle;Max_cycle;Signal;HPM_P1;HPM_P2
2022/10/28 00:01:48;;;;;;;14.10;8.10;;;14.20;99.90;;;;;;10438714;28;20278;-72
2022/10/28 00:06:49;;;;;;;10.97;6.63;;;14.30;99.90;;;;;;10441822;28;20255;-73
2022/10/28 00:11:50;;;;;;;9.80;7.33;;;14.20;99.90;;;;;;10447914;28;20223;-76
2022/10/28 00:16:50;;;;;;;12.33;7.60;;;14.20;99.90;;;;;;10443004;28;20223;-75
2022/10/28 00:21:51;;;;;;;11.00;8.07;;;14.10;99.90;;;;;;10451989;28;20224;-76
2022/10/28 00:26:52;;;;;;;12.07;7.07;;;14.10;99.90;;;;;;10433208;28;20216;-75
2022/10/28 00:31:53;;;;;;;14.93;7.90;;;14.10;99.90;;;;;;10433023;28;20220;-73
2022/10/28 00:36:53;;;;;;;10.63;7.10;;;14.10;99.90;;;;;;10428287;28;20228;-75
2022/10/28 00:41:57;;;;;;;10.77;7.30;;;14.20;99.90;;;;;;10430837;28;20234;-74
2022/10/28 00:46:57;;;;;;;11.83;7.27;;;14.30;99.90;;;;;;10428610;28;20286;-73
2022/10/28 00:52:15;;;;;;;9.43;6.87;;;14.30;99.90;;;;;;10429277;28;21252;-74
2022/10/28 00:57:22;;;;;;;13.70;7.27;;;14.40;99.90;;;;;;10434287;28;20236;-75
2022/10/28 01:02:22;;;;;;;9.47;6.87;;;14.40;99.90;;;;;;10426500;28;20371;-80
2022/10/28 01:07:24;;;;;;;11.83;6.33;;;14.50;99.90;;;;;;10431974;28;20342;-80
2022/10/28 01:12:37;;;;;;;14.90;7.20;;;14.50;99.90;;;;;;10435629;28;20231;-80
2022/10/28 01:17:56;;;;;;;13.63;7.67;;;14.50;99.90;;;;;;10444901;28;20266;-78
2022/10/28 01:23:32;;;;;;;10.47;6.40;;;14.60;99.90;;;;;;10433968;28;20227;-79
2022/10/28 01:28:59;;;;;;;12.63;6.93;;;14.60;99.90;;;;;;10387270;28;20300;-79
2022/10/28 01:34:20;;;;;;;7.33;5.80;;;14.60;99.90;;;;;;10426717;28;20225;-80
2022/10/28 01:39:36;;;;;;;8.70;6.03;;;14.70;99.90;;;;;;10441848;28;20700;-80
2022/10/28 01:45:07;;;;;;;7.27;5.97;;;14.70;99.90;;;;;;10439534;28;20226;-79
2022/10/28 01:50:17;;;;;;;8.83;6.03;;;14.70;99.90;;;;;;10438714;28;20225;-79
2022/10/28 01:55:23;;;;;;;8.70;5.90;;;14.70;99.90;;;;;;10384158;28;20227;-77
2022/10/28 02:00:25;;;;;;;10.90;6.57;;;14.70;99.90;;;;;;10385568;28;20209;-76
2022/10/28 02:05:48;;;;;;;11.37;7.20;;;14.80;99.90;;;;;;10387270;28;20695;-77
2022/10/28 02:10:57;;;;;;;14.83;7.33;;;14.80;99.90;;;;;;10392527;28;20230;-77
2022/10/28 02:16:35;;;;;;;12.03;7.20;;;14.80;99.90;;;;;;10395667;28;20216;-78
2022/10/28 02:21:49;;;;;;;9.80;6.67;;;14.80;99.90;;;;;;10389828;28;20236;-78
2022/10/28 02:26:59;;;;;;;11.70;6.90;;;14.80;99.90;;;;;;10390771;28;20315;-78
2022/10/28 02:32:15;;;;;;;12.07;7.03;;;14.70;99.90;;;;;;10413675;28;20223;-76
2022/10/28 02:37:22;;;;;;;11.10;6.60;;;14.70;99.90;;;;;;10436931;28;20273;-78
2022/10/28 02:42:40;;;;;;;8.87;6.57;;;14.70;99.90;;;;;;10418690;28;20225;-76
2022/10/28 02:47:46;;;;;;;8.37;6.77;;;14.70;99.90;;;;;;10398570;28;20270;-76
2022/10/28 02:52:52;;;;;;;9.27;6.20;;;14.80;99.90;;;;;;10392731;28;20219;-75
2022/10/28 02:57:53;;;;;;;8.87;5.97;;;14.80;99.90;;;;;;10411931;28;20209;-75
2022/10/28 03:02:53;;;;;;;14.23;7.57;;;14.70;99.90;;;;;;10397749;28;20209;-75
2022/10/28 03:07:54;;;;;;;13.53;7.37;;;14.70;99.90;;;;;;10392055;28;20217;-76
2022/10/28 03:12:54;;;;;;;14.40;7.53;;;14.70;99.90;;;;;;10403412;28;20295;-80
2022/10/28 03:17:55;;;;;;;16.73;8.03;;;14.70;99.90;;;;;;10416796;28;20219;-78
2022/10/28 03:22:56;;;;;;;12.90;7.80;;;14.70;99.90;;;;;;10425926;28;20228;-78
2022/10/28 03:27:56;;;;;;;11.87;7.53;;;14.70;99.90;;;;;;10400956;28;20216;-77
2022/10/28 03:32:57;;;;;;;12.27;7.50;;;14.80;99.90;;;;;;10402006;28;20220;-76
2022/10/28 03:37:57;;;;;;;12.93;7.67;;;14.80;99.90;;;;;;10402126;28;20239;-75
2022/10/28 03:42:58;;;;;;;16.73;8.43;;;14.90;99.90;;;;;;10399563;28;20632;-76
2022/10/28 03:47:59;;;;;;;11.80;7.00;;;15.00;99.90;;;;;;10396920;28;20221;-80
2022/10/28 03:52:59;;;;;;;11.87;8.13;;;15.00;99.90;;;;;;10392376;28;20247;-78
2022/10/28 03:58:01;;;;;;;11.53;6.43;;;15.00;99.90;;;;;;10393994;28;20216;-80
2022/10/28 04:03:01;;;;;;;14.53;7.27;;;15.00;99.90;;;;;;10392635;28;20225;-77
2022/10/28 04:08:02;;;;;;;22.57;7.43;;;15.00;99.90;;;;;;10389831;28;20224;-79
2022/10/28 04:13:04;;;;;;;16.37;7.57;;;14.90;99.90;;;;;;10394800;28;20707;-77
2022/10/28 04:18:08;;;;;;;17.13;7.00;;;14.80;99.90;;;;;;10395102;28;20226;-77
2022/10/28 04:23:14;;;;;;;11.50;6.73;;;14.70;99.90;;;;;;10388793;28;20707;-77
2022/10/28 04:28:15;;;;;;;14.23;6.80;;;14.70;99.90;;;;;;10392144;28;20270;-75
2022/10/28 04:33:17;;;;;;;16.20;7.43;;;14.60;99.90;;;;;;10401363;28;20676;-77
2022/10/28 04:38:18;;;;;;;18.67;7.67;;;14.60;99.90;;;;;;10391774;28;20229;-77
2022/10/28 04:43:18;;;;;;;18.93;8.10;;;14.60;99.90;;;;;;10398046;28;20691;-76
2022/10/28 04:48:19;;;;;;;17.77;7.43;;;14.60;99.90;;;;;;10404408;28;20760;-77
2022/10/28 04:53:20;;;;;;;16.63;8.70;;;14.70;99.90;;;;;;10401738;28;20302;-76
2022/10/28 04:58:20;;;;;;;17.23;7.37;;;14.70;99.90;;;;;;10432992;28;20211;-78
2022/10/28 05:03:21;;;;;;;12.83;7.30;;;14.70;99.90;;;;;;10443342;28;20732;-78
2022/10/28 05:08:22;;;;;;;12.13;6.80;;;14.80;99.90;;;;;;10407859;28;20263;-79
2022/10/28 05:13:22;;;;;;;14.20;6.63;;;14.80;99.90;;;;;;10391227;28;20278;-72
2022/10/28 05:18:23;;;;;;;12.70;6.50;;;14.70;99.90;;;;;;10385756;28;20229;-75
2022/10/28 05:23:23;;;;;;;14.83;6.20;;;14.70;99.90;;;;;;10389139;28;20236;-76
2022/10/28 05:28:24;;;;;;;10.53;6.27;;;14.70;99.90;;;;;;10416669;28;20243;-76
2022/10/28 05:33:25;;;;;;;12.10;7.23;;;14.60;99.90;;;;;;10402550;28;20224;-75
2022/10/28 05:38:26;;;;;;;10.60;6.53;;;14.60;99.90;;;;;;10386132;28;20292;-79
2022/10/28 05:43:26;;;;;;;11.47;7.30;;;14.60;99.90;;;;;;10392806;28;20235;-78
2022/10/28 05:48:27;;;;;;;11.40;7.00;;;14.50;99.90;;;;;;10394992;28;20247;-74
2022/10/28 05:53:27;;;;;;;13.80;7.50;;;14.50;99.90;;;;;;10388699;28;20224;-74
2022/10/28 05:58:28;;;;;;;12.37;7.57;;;14.50;99.90;;;;;;10420316;28;20741;-74
2022/10/28 06:03:28;;;;;;;14.20;7.17;;;14.50;99.90;;;;;;10408262;28;20220;-73
2022/10/28 06:08:29;;;;;;;16.90;7.77;;;14.50;99.90;;;;;;10395716;28;20819;-73
2022/10/28 06:13:30;;;;;;;12.73;6.60;;;14.60;99.90;;;;;;10427848;28;20235;-72
2022/10/28 06:18:30;;;;;;;17.43;7.13;;;14.60;99.90;;;;;;10401669;28;20237;-73
2022/10/28 06:23:31;;;;;;;10.67;7.30;;;14.70;99.90;;;;;;10399419;28;20310;-73
2022/10/28 06:28:32;;;;;;;14.80;7.03;;;14.80;99.90;;;;;;10403476;28;20220;-73
2022/10/28 06:33:32;;;;;;;13.93;7.07;;;14.80;99.90;;;;;;10403238;28;20711;-74
2022/10/28 06:38:34;;;;;;;20.73;8.23;;;14.90;99.90;;;;;;10389437;28;20225;-74
2022/10/28 06:43:35;;;;;;;10.73;6.90;;;15.00;99.90;;;;;;10401545;28;20220;-74
2022/10/28 06:48:35;;;;;;;13.03;7.40;;;15.10;99.90;;;;;;10397442;28;20695;-76
2022/10/28 06:53:36;;;;;;;11.20;6.87;;;15.10;99.90;;;;;;10399930;28;20738;-78
2022/10/28 06:58:36;;;;;;;8.80;6.53;;;15.30;99.90;;;;;;10395378;28;20588;-77
2022/10/28 07:03:37;;;;;;;11.23;6.40;;;15.30;99.90;;;;;;10423142;28;20312;-78
2022/10/28 07:08:38;;;;;;;11.50;7.47;;;15.40;99.90;;;;;;10438566;28;20228;-77
2022/10/28 07:13:39;;;;;;;16.33;8.07;;;15.40;99.90;;;;;;10414272;28;20224;-77
2022/10/28 07:18:39;;;;;;;10.30;6.97;;;15.50;99.90;;;;;;10397426;28;20238;-77
2022/10/28 07:23:40;;;;;;;12.17;6.97;;;15.60;99.90;;;;;;10406306;28;20572;-75
2022/10/28 07:28:41;;;;;;;11.03;6.60;;;15.70;99.90;;;;;;10404419;28;20599;-75
2022/10/28 07:33:42;;;;;;;13.23;7.03;;;15.80;99.90;;;;;;10402349;28;20224;-77
2022/10/28 07:38:43;;;;;;;9.63;6.40;;;15.80;99.90;;;;;;10404876;28;20703;-76
2022/10/28 07:43:43;;;;;;;8.67;5.83;;;15.80;99.90;;;;;;10405887;28;20277;-76
2022/10/28 07:48:44;;;;;;;9.40;6.37;;;15.90;99.90;;;;;;10401952;28;20220;-74
2022/10/28 07:53:45;;;;;;;10.80;6.97;;;16.20;99.90;;;;;;10409114;28;20229;-73
2022/10/28 07:58:45;;;;;;;11.93;6.63;;;16.40;99.90;;;;;;10399771;28;20715;-74
2022/10/28 08:03:46;;;;;;;14.87;7.23;;;16.70;99.90;;;;;;10405578;28;20210;-75
2022/10/28 08:08:52;;;;;;;10.10;6.13;;;17.00;99.90;;;;;;10415742;28;20228;-74
2022/10/28 08:13:54;;;;;;;11.83;6.30;;;17.40;99.90;;;;;;10405445;28;20222;-74
2022/10/28 08:18:55;;;;;;;11.03;5.47;;;18.20;99.90;;;;;;10436084;28;20228;-74
2022/10/28 08:23:56;;;;;;;12.73;5.57;;;20.10;99.90;;;;;;10409302;28;20235;-73
2022/10/28 08:28:57;;;;;;;11.27;5.47;;;21.00;99.90;;;;;;10432083;28;20274;-74
2022/10/28 08:33:58;;;;;;;11.40;5.33;;;21.00;99.90;;;;;;10439052;28;20619;-74
2022/10/28 08:39:00;;;;;;;11.50;5.87;;;20.50;99.90;;;;;;10433871;28;20235;-74
2022/10/28 08:44:36;;;;;;;13.17;5.80;;;20.00;99.90;;;;;;10444641;28;20223;-75
2022/10/28 08:49:40;;;;;;;9.47;5.50;;;19.60;99.90;;;;;;10389530;28;20220;-74
2022/10/28 08:54:49;;;;;;;9.53;5.10;;;19.90;99.90;;;;;;10432728;28;20219;-74
2022/10/28 08:59:51;;;;;;;7.67;4.40;;;20.60;99.90;;;;;;10400475;28;20223;-74
2022/10/28 09:05:01;;;;;;;17.30;5.13;;;21.20;99.90;;;;;;10406181;28;20216;-74
2022/10/28 09:10:04;;;;;;;10.17;4.70;;;21.90;99.90;;;;;;10398869;28;20234;-73
2022/10/28 09:15:17;;;;;;;9.13;4.17;;;22.70;99.90;;;;;;10436252;28;20224;-73
2022/10/28 09:20:25;;;;;;;10.70;4.40;;;24.60;99.90;;;;;;10400164;28;20664;-74
2022/10/28 09:25:48;;;;;;;11.53;4.53;;;26.00;99.90;;;;;;10403889;28;20781;-74
2022/10/28 09:30:57;;;;;;;10.60;5.10;;;28.00;99.90;;;;;;10398234;28;20727;-74
2022/10/28 09:35:58;;;;;;;10.43;4.80;;;27.60;99.90;;;;;;10404445;28;20220;-74
2022/10/28 09:41:06;;;;;;;8.27;3.73;;;27.00;99.90;;;;;;10400906;28;20231;-74
2022/10/28 09:46:11;;;;;;;14.60;4.83;;;29.90;96.90;;;;;;10398347;28;20229;-73
2022/10/28 09:51:27;;;;;;;11.03;4.87;;;32.70;81.40;;;;;;10399807;28;20220;-74
2022/10/28 09:56:29;;;;;;;9.80;3.80;;;34.60;64.60;;;;;;10401191;28;20323;-75
2022/10/28 10:01:33;;;;;;;11.23;4.30;;;35.30;57.90;;;;;;10409375;28;20228;-76
2022/10/28 10:06:39;;;;;;;9.97;4.33;;;35.20;54.60;;;;;;10414473;28;20596;-74
2022/10/28 10:11:43;;;;;;;8.67;3.77;;;35.00;53.80;;;;;;10396441;28;20230;-75
2022/10/28 10:16:57;;;;;;;10.47;3.80;;;35.90;51.20;;;;;;10401167;28;20742;-74
2022/10/28 10:21:58;;;;;;;10.47;3.40;;;36.60;49.00;;;;;;10398998;28;20235;-74
2022/10/28 10:27:09;;;;;;;8.60;3.50;;;37.20;47.80;;;;;;10416432;28;20689;-78
2022/10/28 10:32:23;;;;;;;18.43;4.40;;;37.40;45.60;;;;;;10438419;28;20281;-75
2022/10/28 10:37:25;;;;;;;11.60;3.33;;;37.90;44.80;;;;;;10414488;28;20219;-73
2022/10/28 10:42:26;;;;;;;11.93;3.73;;;38.00;44.10;;;;;;10395910;28;20291;-72
2022/10/28 10:47:28;;;;;;;8.20;3.87;;;37.90;43.60;;;;;;10406317;28;20762;-73
2022/10/28 10:52:28;;;;;;;9.87;3.23;;;38.40;42.60;;;;;;10399762;28;20227;-72
2022/10/28 10:57:30;;;;;;;10.57;3.43;;;38.10;40.90;;;;;;10407429;28;20219;-72
2022/10/28 11:02:35;;;;;;;10.63;3.60;;;37.80;41.40;;;;;;10406070;28;20219;-71
2022/10/28 11:07:44;;;;;;;11.43;3.40;;;37.00;42.10;;;;;;10406070;28;20220;-72
2022/10/28 11:13:24;;;;;;;9.50;3.33;;;33.20;47.40;;;;;;10398632;28;20234;-72
2022/10/28 11:18:25;;;;;;;10.17;3.40;;;29.70;54.20;;;;;;10404555;28;20224;-72
2022/10/28 11:23:39;;;;;;;11.43;3.53;;;27.80;59.50;;;;;;10402281;28;20645;-72
2022/10/28 11:29:02;;;;;;;10.00;3.37;;;26.60;63.20;;;;;;10407254;28;20233;-73
2022/10/28 11:34:45;;;;;;;12.67;3.70;;;26.20;65.70;;;;;;10408594;28;20902;-73
2022/10/28 11:40:04;;;;;;;11.27;3.47;;;25.90;67.40;;;;;;10401573;28;20234;-73
2022/10/28 11:45:31;;;;;;;11.53;3.33;;;25.70;67.60;;;;;;10437989;28;20224;-73
2022/10/28 11:50:45;;;;;;;10.30;3.50;;;25.30;67.50;;;;;;10445119;28;20560;-74
2022/10/28 11:56:30;;;;;;;14.47;4.53;;;24.90;69.80;;;;;;10432027;28;20262;-75
2022/10/28 12:01:57;;;;;;;13.67;3.10;;;24.50;71.30;;;;;;10421660;28;20232;-75
2022/10/28 12:07:08;;;;;;;8.37;3.07;;;24.50;73.40;;;;;;10436200;28;20224;-74
2022/10/28 12:12:39;;;;;;;10.73;2.80;;;24.40;74.70;;;;;;10404608;28;20225;-74
2022/10/28 12:18:06;;;;;;;9.47;3.00;;;24.30;74.30;;;;;;10410290;28;20255;-74
2022/10/28 12:23:15;;;;;;;11.83;2.80;;;24.30;73.70;;;;;;10399444;28;20213;-74
2022/10/28 12:28:21;;;;;;;11.83;2.87;;;24.30;72.70;;;;;;10407059;28;20232;-73
2022/10/28 12:33:31;;;;;;;10.43;3.30;;;24.20;72.90;;;;;;10406659;28;20205;-73
2022/10/28 12:38:59;;;;;;;10.70;3.57;;;24.00;75.00;;;;;;10394414;28;20221;-68
2022/10/28 12:44:20;;;;;;;11.07;3.13;;;23.90;76.00;;;;;;10400906;28;20212;-70
2022/10/28 12:49:42;;;;;;;10.57;3.23;;;23.80;75.40;;;;;;10432013;28;20242;-68
2022/10/28 12:54:55;;;;;;;14.50;3.23;;;23.80;76.00;;;;;;10403803;28;20223;-69
2022/10/28 13:00:05;;;;;;;12.03;2.90;;;23.70;76.40;;;;;;10405177;28;20769;-67
2022/10/28 13:05:06;;;;;;;11.40;3.20;;;23.70;76.80;;;;;;10433793;28;20749;-70
2022/10/28 13:10:36;;;;;;;11.57;3.00;;;23.70;77.00;;;;;;10398365;28;20290;-70
2022/10/28 13:15:43;;;;;;;9.57;3.23;;;23.70;77.00;;;;;;10401742;28;20243;-70
2022/10/28 13:21:17;;;;;;;13.43;3.20;;;23.60;77.70;;;;;;10397440;28;20227;-69
2022/10/28 13:26:33;;;;;;;16.23;3.47;;;23.60;77.70;;;;;;10396111;28;20264;-69
2022/10/28 13:31:35;;;;;;;12.67;3.20;;;23.40;79.30;;;;;;10409973;28;20233;-68
2022/10/28 13:36:41;;;;;;;7.33;2.97;;;23.30;79.80;;;;;;10423652;28;20304;-69
2022/10/28 13:41:42;;;;;;;11.80;3.07;;;23.20;81.10;;;;;;10398231;28;20231;-69
2022/10/28 13:46:57;;;;;;;8.17;2.97;;;23.40;81.20;;;;;;10396171;28;20230;-70
2022/10/28 13:52:07;;;;;;;10.83;2.93;;;23.60;80.20;;;;;;10398126;28;20224;-70
2022/10/28 13:57:24;;;;;;;10.37;2.93;;;23.60;80.30;;;;;;10400970;28;20590;-71
2022/10/28 14:02:40;;;;;;;11.03;2.90;;;23.50;81.20;;;;;;10401098;28;20223;-75
2022/10/28 14:07:56;;;;;;;11.07;3.33;;;23.30;82.00;;;;;;10390731;28;20831;-70
2022/10/28 14:13:17;;;;;;;12.23;3.00;;;23.30;83.20;;;;;;10398591;28;20245;-71
2022/10/28 14:18:22;;;;;;;7.60;3.03;;;23.30;83.40;;;;;;10387961;28;20215;-74
2022/10/28 14:23:32;;;;;;;11.40;2.83;;;23.30;83.50;;;;;;10398982;28;20221;-75
2022/10/28 14:28:32;;;;;;;12.03;3.27;;;23.40;84.00;;;;;;10402074;28;20246;-76
2022/10/28 14:33:53;;;;;;;9.03;2.70;;;23.30;83.50;;;;;;10430455;28;20232;-74
2022/10/28 14:39:05;;;;;;;14.40;3.43;;;23.00;84.90;;;;;;10424445;28;20244;-77
2022/10/28 14:44:50;;;;;;;9.70;3.30;;;22.70;86.10;;;;;;10410025;28;20228;-70
2022/10/28 14:50:14;;;;;;;15.80;3.10;;;22.40;87.10;;;;;;10438105;28;20231;-70
2022/10/28 14:55:28;;;;;;;10.03;3.00;;;22.20;87.90;;;;;;10444136;28;20223;-71
2022/10/28 15:00:36;;;;;;;12.77;3.30;;;22.10;89.10;;;;;;10447079;28;20276;-71
2022/10/28 15:05:36;;;;;;;11.67;3.23;;;22.00;90.00;;;;;;10409253;28;20235;-71
2022/10/28 15:10:37;;;;;;;14.53;3.27;;;21.90;90.10;;;;;;10431429;28;20235;-70
2022/10/28 15:15:38;;;;;;;14.23;3.20;;;21.80;90.80;;;;;;10397203;28;20226;-70
2022/10/28 15:20:39;;;;;;;11.40;3.40;;;21.70;91.20;;;;;;10435882;28;20235;-69
2022/10/28 15:25:40;;;;;;;9.37;2.97;;;21.60;91.60;;;;;;10433222;28;20287;-69
2022/10/28 15:30:42;;;;;;;12.30;3.73;;;21.50;92.20;;;;;;10408192;28;20222;-70
2022/10/28 15:35:43;;;;;;;14.13;3.23;;;21.40;92.90;;;;;;10417882;28;20233;-69
2022/10/28 15:40:43;;;;;;;12.73;3.10;;;21.20;93.80;;;;;;10447718;28;20227;-70
2022/10/28 15:45:44;;;;;;;15.57;3.57;;;21.00;94.70;;;;;;10448329;28;20223;-70
2022/10/28 15:51:18;;;;;;;9.50;3.30;;;20.90;95.60;;;;;;10446383;28;20230;-69
2022/10/28 15:56:52;;;;;;;13.00;3.67;;;20.80;96.40;;;;;;10444742;28;20258;-70
2022/10/28 16:01:54;;;;;;;12.20;3.50;;;20.80;97.30;;;;;;10441888;28;20226;-69
2022/10/28 16:06:56;;;;;;;10.10;3.43;;;20.70;98.00;;;;;;10433807;28;20663;-69
2022/10/28 16:12:03;;;;;;;12.20;4.00;;;20.60;98.80;;;;;;10433331;28;20270;-69
2022/10/28 16:17:31;;;;;;;19.37;3.73;;;20.50;99.60;;;;;;10437189;28;20229;-70
2022/10/28 16:22:34;;;;;;;14.53;3.30;;;20.40;99.90;;;;;;10434161;28;20559;-69
2022/10/28 16:27:34;;;;;;;11.50;3.20;;;20.20;99.90;;;;;;10435913;28;20599;-68
2022/10/28 16:32:48;;;;;;;14.17;3.57;;;20.10;99.90;;;;;;10438227;28;20225;-69
2022/10/28 16:37:49;;;;;;;10.70;4.40;;;20.00;99.90;;;;;;10433711;28;20235;-69
2022/10/28 16:42:50;;;;;;;13.57;3.80;;;19.80;99.90;;;;;;10431083;28;20235;-69
2022/10/28 16:47:51;;;;;;;10.77;3.90;;;19.70;99.90;;;;;;10437427;28;20895;-68
2022/10/28 16:52:53;;;;;;;14.73;3.90;;;19.60;99.90;;;;;;10415908;28;20600;-68
2022/10/28 16:57:53;;;;;;;10.73;3.90;;;19.60;99.90;;;;;;10399965;28;20231;-68
2022/10/28 17:02:54;;;;;;;11.53;4.10;;;19.60;99.90;;;;;;10389879;28;20245;-69
2022/10/28 17:07:55;;;;;;;13.27;3.73;;;19.60;99.90;;;;;;10397612;28;20239;-69
2022/10/28 17:12:55;;;;;;;10.73;3.63;;;19.60;99.90;;;;;;10384979;28;20231;-69
2022/10/28 17:17:56;;;;;;;11.17;3.53;;;19.80;99.90;;;;;;10397962;28;20233;-69
2022/10/28 17:22:57;;;;;;;15.33;3.67;;;19.90;99.90;;;;;;10388461;28;20719;-70
2022/10/28 17:27:58;;;;;;;13.73;3.73;;;19.90;99.90;;;;;;10384056;28;20307;-70
2022/10/28 17:32:58;;;;;;;12.57;3.67;;;19.90;99.90;;;;;;10402839;28;20304;-70
2022/10/28 17:37:59;;;;;;;9.53;4.00;;;19.90;99.90;;;;;;10384937;28;20395;-73
2022/10/28 17:42:59;;;;;;;15.67;3.63;;;19.90;99.90;;;;;;10397318;28;20629;-76
2022/10/28 17:48:00;;;;;;;12.87;3.90;;;19.90;99.90;;;;;;10426962;28;20227;-77
2022/10/28 17:53:01;;;;;;;18.50;4.23;;;19.80;99.90;;;;;;10404592;28;20321;-74
2022/10/28 17:58:01;;;;;;;17.17;4.63;;;19.80;99.90;;;;;;10412636;28;20587;-72
2022/10/28 18:03:03;;;;;;;10.93;3.90;;;19.80;99.90;;;;;;10405835;28;20228;-72
2022/10/28 18:08:04;;;;;;;12.23;3.67;;;19.70;99.90;;;;;;10383064;28;20227;-71
2022/10/28 18:13:04;;;;;;;15.40;3.90;;;19.60;99.90;;;;;;10396950;28;20231;-72
2022/10/28 18:18:05;;;;;;;9.73;3.67;;;19.50;99.90;;;;;;10384383;28;20297;-72
2022/10/28 18:23:05;;;;;;;17.10;4.30;;;19.40;99.90;;;;;;10381303;28;20227;-72
2022/10/28 18:28:09;;;;;;;16.00;4.70;;;19.30;99.90;;;;;;10380067;28;20300;-72
2022/10/28 18:33:09;;;;;;;17.47;4.30;;;19.30;99.90;;;;;;10388387;28;20227;-73
2022/10/28 18:38:10;;;;;;;10.70;4.57;;;19.40;99.90;;;;;;10381188;28;20282;-72
2022/10/28 18:43:10;;;;;;;15.37;4.40;;;19.40;99.90;;;;;;10393256;28;20280;-71
2022/10/28 18:48:11;;;;;;;12.37;4.37;;;19.40;99.90;;;;;;10385315;28;20236;-72
2022/10/28 18:53:11;;;;;;;12.03;4.80;;;19.40;99.90;;;;;;10393279;28;20297;-72
2022/10/28 18:58:14;;;;;;;11.40;3.83;;;19.30;99.90;;;;;;10385382;28;20230;-72
2022/10/28 19:03:18;;;;;;;15.27;4.90;;;19.40;99.90;;;;;;10384755;28;20245;-71
2022/10/28 19:08:19;;;;;;;13.57;4.00;;;19.40;99.90;;;;;;10399532;28;20285;-73
2022/10/28 19:13:19;;;;;;;14.30;3.97;;;19.40;99.90;;;;;;10391160;28;20568;-73
2022/10/28 19:18:20;;;;;;;14.03;4.30;;;19.40;99.90;;;;;;10391913;28;20229;-73
2022/10/28 19:23:21;;;;;;;15.00;5.30;;;19.40;99.90;;;;;;10390905;28;20236;-72
2022/10/28 19:28:23;;;;;;;12.47;4.60;;;19.40;99.90;;;;;;10393669;28;20367;-72
2022/10/28 19:33:24;;;;;;;9.03;4.03;;;19.40;99.90;;;;;;10392920;28;20647;-73
2022/10/28 19:38:28;;;;;;;16.73;4.50;;;19.40;99.90;;;;;;10388916;28;20246;-72
2022/10/28 19:43:28;;;;;;;12.43;3.93;;;19.40;99.90;;;;;;10395474;28;20710;-72
2022/10/28 19:48:29;;;;;;;11.73;3.97;;;19.40;99.90;;;;;;10392411;28;20225;-73
2022/10/28 19:53:30;;;;;;;10.97;3.77;;;19.40;99.90;;;;;;10392937;28;20553;-72
2022/10/28 19:58:31;;;;;;;11.53;3.93;;;19.40;99.90;;;;;;10396821;28;20813;-73
2022/10/28 20:03:32;;;;;;;17.23;4.60;;;19.40;99.90;;;;;;10399284;28;20288;-72
2022/10/28 20:08:38;;;;;;;18.20;4.40;;;19.40;99.90;;;;;;10393252;28;20762;-72
2022/10/28 20:13:39;;;;;;;11.23;3.73;;;19.30;99.90;;;;;;10385057;28;20568;-72
2022/10/28 20:18:40;;;;;;;18.23;5.07;;;19.20;99.90;;;;;;10393832;28;20226;-72
2022/10/28 20:23:42;;;;;;;10.70;4.00;;;19.00;99.90;;;;;;10385792;28;20222;-72
2022/10/28 20:28:43;;;;;;;14.40;4.60;;;18.90;99.90;;;;;;10391919;28;20217;-73
2022/10/28 20:33:48;;;;;;;14.30;3.93;;;18.80;99.90;;;;;;10383510;28;20697;-72
2022/10/28 20:39:04;;;;;;;17.03;5.23;;;18.80;99.90;;;;;;10384810;28;20231;-72
2022/10/28 20:44:05;;;;;;;16.17;3.80;;;18.70;99.90;;;;;;10389989;28;20216;-72
2022/10/28 20:49:07;;;;;;;12.67;4.43;;;18.60;99.90;;;;;;10389057;28;20219;-72
2022/10/28 20:54:08;;;;;;;13.93;4.17;;;18.60;99.90;;;;;;10429030;28;20279;-72
2022/10/28 20:59:09;;;;;;;18.53;4.40;;;18.60;99.90;;;;;;10395177;28;20221;-72
2022/10/28 21:04:10;;;;;;;17.80;4.70;;;18.60;99.90;;;;;;10429789;28;20720;-71
2022/10/28 21:09:10;;;;;;;11.47;4.40;;;18.50;99.90;;;;;;10399112;28;20239;-74
2022/10/28 21:14:11;;;;;;;15.97;4.80;;;18.50;99.90;;;;;;10386425;28;20226;-72
2022/10/28 21:19:12;;;;;;;12.17;4.57;;;18.50;99.90;;;;;;10387810;28;20808;-73
2022/10/28 21:24:12;;;;;;;14.17;4.10;;;18.40;99.90;;;;;;10387502;28;20296;-71
2022/10/28 21:29:13;;;;;;;11.87;4.03;;;18.40;99.90;;;;;;10386752;28;20573;-73
2022/10/28 21:34:13;;;;;;;14.93;4.50;;;18.30;99.90;;;;;;10387162;28;20217;-72
2022/10/28 21:39:17;;;;;;;11.70;3.97;;;18.20;99.90;;;;;;10391239;28;20281;-71
2022/10/28 21:44:17;;;;;;;15.50;4.80;;;18.20;99.90;;;;;;10385510;28;20221;-72
2022/10/28 21:49:18;;;;;;;14.13;4.10;;;18.00;99.90;;;;;;10387515;28;20210;-72
2022/10/28 21:54:18;;;;;;;17.87;5.27;;;18.00;99.90;;;;;;10383962;28;20326;-72
2022/10/28 21:59:19;;;;;;;11.70;4.90;;;17.90;99.90;;;;;;10393020;28;20223;-72
2022/10/28 22:04:20;;;;;;;10.70;4.43;;;17.90;99.90;;;;;;10394203;28;20308;-72
2022/10/28 22:09:20;;;;;;;7.13;4.50;;;17.80;99.90;;;;;;10426361;28;20232;-72
2022/10/28 22:14:21;;;;;;;10.07;4.77;;;17.80;99.90;;;;;;10392488;28;20429;-72
2022/10/28 22:19:21;;;;;;;10.07;4.00;;;17.70;99.90;;;;;;10384605;28;20245;-72
2022/10/28 22:24:22;;;;;;;15.43;4.83;;;17.60;99.90;;;;;;10384892;28;20342;-71
2022/10/28 22:29:23;;;;;;;15.90;4.23;;;17.60;99.90;;;;;;10384989;28;20221;-71
2022/10/28 22:34:23;;;;;;;10.97;5.17;;;17.50;99.90;;;;;;10419811;28;20228;-71
2022/10/28 22:39:24;;;;;;;11.10;4.80;;;17.50;99.90;;;;;;10393792;28;20316;-72
2022/10/28 22:44:24;;;;;;;11.63;4.60;;;17.30;99.90;;;;;;10388652;28;20325;-72
2022/10/28 22:49:25;;;;;;;13.23;4.87;;;17.20;99.90;;;;;;10398743;28;20382;-73
2022/10/28 22:54:25;;;;;;;17.63;6.03;;;17.10;99.90;;;;;;10397541;28;20299;-73
2022/10/28 22:59:26;;;;;;;10.87;4.90;;;17.00;99.90;;;;;;10388916;28;20312;-72
2022/10/28 23:04:27;;;;;;;14.40;5.33;;;16.90;99.90;;;;;;10431674;28;20213;-72
2022/10/28 23:09:27;;;;;;;15.83;5.47;;;16.80;99.90;;;;;;10435009;28;20239;-72
2022/10/28 23:14:28;;;;;;;14.67;5.43;;;16.90;99.90;;;;;;10404185;28;20563;-73
2022/10/28 23:19:28;;;;;;;15.83;5.23;;;16.80;99.90;;;;;;10429570;28;20243;-72
2022/10/28 23:24:29;;;;;;;14.37;4.93;;;16.80;99.90;;;;;;10388534;28;20221;-72
2022/10/28 23:29:30;;;;;;;10.93;4.60;;;16.80;99.90;;;;;;10399251;28;20209;-72
2022/10/28 23:34:30;;;;;;;15.53;5.63;;;16.80;99.90;;;;;;10396097;28;20217;-71
2022/10/28 23:39:33;;;;;;;12.77;4.97;;;16.90;99.90;;;;;;10394258;28;20227;-72
2022/10/28 23:44:34;;;;;;;15.07;4.77;;;17.10;99.90;;;;;;10386748;28;20770;-71
2022/10/28 23:49:34;;;;;;;12.40;4.70;;;17.20;99.90;;;;;;10394211;28;20325;-73
2022/10/28 23:54:36;;;;;;;16.73;4.97;;;17.30;99.90;;;;;;10392900;28;20599;-72
2022/10/28 23:59:36;;;;;;;15.50;5.17;;;17.40;99.90;;;;;;10386913;28;20343;-72
